createdAt,value
2018-01-19T00:01:16.879Z,2.40
2018-01-19T00:03:44.134Z,1.57
2018-01-19T00:06:11.408Z,2.03
2018-01-19T00:08:38.652Z,2.00
2018-01-19T00:11:05.931Z,1.77
2018-01-19T00:13:33.175Z,1.57
2018-01-19T00:16:00.432Z,1.20
2018-01-19T00:18:27.754Z,1.90
2018-01-19T00:20:55.004Z,1.67
2018-01-19T00:23:22.284Z,1.70
2018-01-19T00:25:49.550Z,1.67
2018-01-19T00:28:16.819Z,1.90
2018-01-19T00:30:44.064Z,1.37
2018-01-19T00:33:11.340Z,1.20
2018-01-19T00:35:38.599Z,1.60
2018-01-19T00:38:05.900Z,1.40
2018-01-19T00:40:33.268Z,1.20
2018-01-19T00:43:00.528Z,1.07
2018-01-19T00:45:27.795Z,1.03
2018-01-19T00:47:55.049Z,1.30
2018-01-19T00:50:22.339Z,1.10
2018-01-19T00:52:49.588Z,1.00
2018-01-19T00:55:16.867Z,1.10
2018-01-19T00:57:44.140Z,0.93
2018-01-19T01:00:11.418Z,0.93
2018-01-19T01:02:38.711Z,1.10
2018-01-19T01:05:05.968Z,1.10
2018-01-19T01:07:33.216Z,0.90
2018-01-19T01:10:00.491Z,0.87
2018-01-19T01:12:27.773Z,0.97
2018-01-19T01:14:55.057Z,0.80
2018-01-19T01:17:22.305Z,0.60
2018-01-19T01:19:49.551Z,0.80
2018-01-19T01:22:16.834Z,1.00
2018-01-19T01:24:44.090Z,1.03
2018-01-19T01:27:11.358Z,1.10
2018-01-19T01:29:38.607Z,1.10
2018-01-19T01:32:05.896Z,1.10
2018-01-19T01:34:33.148Z,1.00
2018-01-19T01:37:00.510Z,1.23
2018-01-19T01:39:27.773Z,1.20
2018-01-19T01:41:55.039Z,1.03
2018-01-19T01:44:22.310Z,1.67
2018-01-19T01:46:50.881Z,2.00
2018-01-19T01:49:18.132Z,2.00
2018-01-19T01:51:45.416Z,2.23
2018-01-19T01:54:12.660Z,1.97
2018-01-19T01:56:39.913Z,2.00
2018-01-19T01:59:07.204Z,1.90
2018-01-19T02:01:35.180Z,2.10
2018-01-19T02:04:02.454Z,2.13
2018-01-19T02:06:29.740Z,1.80
2018-01-19T02:08:57.033Z,1.97
2018-01-19T02:11:24.470Z,1.37
2018-01-19T02:13:51.804Z,1.33
2018-01-19T02:16:19.052Z,1.27
2018-01-19T02:18:46.324Z,1.80
2018-01-19T02:21:13.623Z,1.43
2018-01-19T02:23:40.889Z,1.23
2018-01-19T02:26:08.172Z,1.30
2018-01-19T02:28:35.416Z,1.57
2018-01-19T02:31:02.691Z,1.30
2018-01-19T02:33:29.968Z,1.50
2018-01-19T02:35:57.224Z,1.33
2018-01-19T02:38:24.612Z,1.60
2018-01-19T02:40:51.863Z,1.43
2018-01-19T02:43:19.116Z,1.47
2018-01-19T02:45:46.470Z,1.27
2018-01-19T02:48:13.720Z,1.30
2018-01-19T02:50:41.007Z,1.57
2018-01-19T02:53:08.251Z,1.40
2018-01-19T02:55:35.499Z,1.40
2018-01-19T02:58:02.840Z,1.40
2018-01-19T03:00:30.107Z,1.50
2018-01-19T03:02:57.363Z,1.27
2018-01-19T03:05:24.707Z,1.50
2018-01-19T03:07:51.962Z,1.10
2018-01-19T03:10:19.213Z,1.57
2018-01-19T03:12:46.490Z,1.60
2018-01-19T03:15:13.795Z,1.37
2018-01-19T03:17:41.089Z,1.27
2018-01-19T03:20:08.344Z,1.20
2018-01-19T03:22:35.590Z,1.10
2018-01-19T03:25:03.593Z,1.20
2018-01-19T03:27:30.910Z,1.00
2018-01-19T03:29:58.260Z,0.70
2018-01-19T03:32:25.507Z,0.90
2018-01-19T03:34:52.874Z,0.80
2018-01-19T03:37:20.151Z,0.90
2018-01-19T03:39:47.431Z,0.80
2018-01-19T03:42:14.684Z,0.63
2018-01-19T03:44:41.983Z,0.70
2018-01-19T03:47:09.269Z,0.90
2018-01-19T03:49:36.519Z,0.97
2018-01-19T03:52:03.772Z,0.80
2018-01-19T03:54:31.100Z,0.83
2018-01-19T03:56:58.341Z,0.90
2018-01-19T03:59:25.611Z,1.00
2018-01-19T04:01:52.859Z,0.87
2018-01-19T04:04:20.143Z,1.00
2018-01-19T04:06:47.384Z,1.07
2018-01-19T04:09:14.632Z,1.30
2018-01-19T04:11:41.912Z,1.00
2018-01-19T04:14:09.159Z,1.27
2018-01-19T04:16:36.442Z,1.20
2018-01-19T04:19:03.697Z,1.03
2018-01-19T04:21:30.987Z,1.30
2018-01-19T04:23:58.239Z,1.37
2018-01-19T04:26:25.487Z,1.40
2018-01-19T04:28:52.759Z,1.10
2018-01-19T04:31:20.016Z,1.20
2018-01-19T04:33:47.292Z,1.07
2018-01-19T04:36:14.549Z,1.30
2018-01-19T04:38:41.827Z,1.50
2018-01-19T04:41:09.078Z,1.03
2018-01-19T04:43:36.344Z,1.40
2018-01-19T04:46:03.598Z,1.00
2018-01-19T04:48:30.904Z,1.50
2018-01-19T04:50:58.161Z,1.17
2018-01-19T04:53:25.488Z,1.23
2018-01-19T04:55:52.763Z,1.27
2018-01-19T04:58:20.096Z,1.40
2018-01-19T05:00:47.371Z,1.20
2018-01-19T05:03:14.619Z,1.00
2018-01-19T05:05:41.951Z,1.37
2018-01-19T05:08:09.231Z,1.13
2018-01-19T05:10:36.478Z,1.50
2018-01-19T05:13:03.751Z,1.30
2018-01-19T05:15:31.004Z,1.27
2018-01-19T05:17:58.281Z,1.47
2018-01-19T05:20:25.587Z,1.30
2018-01-19T05:22:52.855Z,1.40
2018-01-19T05:25:20.136Z,1.63
2018-01-19T05:27:47.440Z,1.60
2018-01-19T05:30:14.716Z,1.70
2018-01-19T05:32:41.991Z,2.10
2018-01-19T05:35:09.268Z,2.27
2018-01-19T05:37:36.516Z,1.97
2018-01-19T05:40:03.816Z,1.90
2018-01-19T05:42:31.067Z,2.13
2018-01-19T05:44:58.436Z,2.23
2018-01-19T05:47:25.772Z,2.23
2018-01-19T05:49:53.027Z,1.53
2018-01-19T05:52:20.303Z,1.73
2018-01-19T05:54:47.584Z,1.63
2018-01-19T05:57:14.832Z,1.77
2018-01-19T05:59:42.115Z,1.60
2018-01-19T06:02:09.363Z,1.70
2018-01-19T06:04:36.612Z,1.83
2018-01-19T06:07:03.904Z,1.90
2018-01-19T06:09:31.156Z,1.70
2018-01-19T06:11:58.427Z,2.03
2018-01-19T06:14:25.676Z,2.30
2018-01-19T06:16:52.948Z,2.07
2018-01-19T06:19:20.228Z,1.90
2018-01-19T06:21:47.480Z,2.33
2018-01-19T06:24:14.724Z,1.90
2018-01-19T06:26:42.012Z,2.50
2018-01-19T06:29:09.260Z,2.70
2018-01-19T06:31:36.508Z,2.60
2018-01-19T06:34:03.784Z,2.67
2018-01-19T06:36:31.066Z,2.10
2018-01-19T06:38:58.341Z,1.67
2018-01-19T06:41:25.590Z,1.70
2018-01-19T06:43:52.910Z,1.67
2018-01-19T06:46:20.266Z,1.70
2018-01-19T06:48:47.539Z,1.73
2018-01-19T06:51:14.815Z,2.10
2018-01-19T06:53:42.063Z,1.80
2018-01-19T06:56:09.377Z,1.50
2018-01-19T06:58:36.624Z,1.83
2018-01-19T07:01:03.988Z,1.80
2018-01-19T07:03:31.235Z,1.80
2018-01-19T07:05:58.516Z,1.57
2018-01-19T07:08:25.760Z,1.50
2018-01-19T07:10:53.035Z,1.60
2018-01-19T07:13:20.280Z,1.80
2018-01-19T07:15:47.571Z,1.83
2018-01-19T07:18:14.819Z,2.10
2018-01-19T07:20:42.072Z,1.67
2018-01-19T07:23:09.372Z,2.07
2018-01-19T07:25:36.647Z,2.13
2018-01-19T07:28:03.913Z,1.87
2018-01-19T07:30:31.156Z,2.03
2018-01-19T07:32:58.447Z,2.13
2018-01-19T07:35:25.696Z,2.30
2018-01-19T07:37:52.977Z,2.47
2018-01-19T07:40:20.255Z,2.50
2018-01-19T07:42:47.545Z,2.40
2018-01-19T07:45:14.823Z,2.87
2018-01-19T07:47:42.101Z,2.93
2018-01-19T07:50:09.350Z,2.70
2018-01-19T07:52:36.619Z,3.13
2018-01-19T07:55:03.871Z,2.53
2018-01-19T07:57:31.143Z,3.27
2018-01-19T07:59:58.392Z,2.70
2018-01-19T08:02:25.668Z,3.30
2018-01-19T08:04:52.916Z,3.03
2018-01-19T08:07:20.170Z,3.10
2018-01-19T08:09:47.437Z,3.00
2018-01-19T08:12:14.717Z,3.60
2018-01-19T08:14:41.967Z,3.17
2018-01-19T08:17:09.257Z,3.57
2018-01-19T08:19:36.517Z,2.93
2018-01-19T08:22:03.773Z,3.23
2018-01-19T08:24:31.124Z,3.70
2018-01-19T08:26:58.408Z,3.00
2018-01-19T08:29:25.665Z,3.67
2018-01-19T08:31:52.954Z,3.57
2018-01-19T08:34:20.209Z,3.30
2018-01-19T08:36:47.456Z,2.90
2018-01-19T08:39:14.737Z,3.10
2018-01-19T08:41:42.012Z,3.27
2018-01-19T08:44:09.348Z,2.70
2018-01-19T08:46:36.632Z,2.83
2018-01-19T08:49:03.972Z,2.87
2018-01-19T08:51:31.196Z,2.90
2018-01-19T08:53:58.568Z,3.07
2018-01-19T08:56:25.841Z,3.10
2018-01-19T08:58:53.180Z,3.40
2018-01-19T09:01:20.450Z,3.30
2018-01-19T09:03:47.699Z,2.50
2018-01-19T09:06:15.042Z,2.93
2018-01-19T09:08:42.311Z,2.30
2018-01-19T09:11:09.596Z,3.23
2018-01-19T09:13:36.855Z,2.73
2018-01-19T09:16:04.109Z,3.07
2018-01-19T09:18:31.392Z,3.00
2018-01-19T09:20:58.664Z,3.20
2018-01-19T09:23:25.909Z,3.27
2018-01-19T09:25:53.189Z,3.23
2018-01-19T09:28:20.435Z,2.40
2018-01-19T09:30:47.716Z,3.00
2018-01-19T09:33:15.037Z,3.20
2018-01-19T09:35:42.304Z,2.63
2018-01-19T09:38:09.585Z,3.00
2018-01-19T09:40:36.893Z,2.50
2018-01-19T09:43:04.160Z,2.73
2018-01-19T09:45:31.496Z,2.73
2018-01-19T09:47:58.772Z,2.30
2018-01-19T09:50:26.015Z,2.40
2018-01-19T09:52:53.296Z,1.97
2018-01-19T09:55:20.575Z,2.20
2018-01-19T09:57:47.826Z,2.70
2018-01-19T10:00:15.095Z,2.90
2018-01-19T10:02:42.354Z,2.03
2018-01-19T10:05:09.633Z,2.40
2018-01-19T10:07:36.880Z,2.63
2018-01-19T10:10:04.171Z,2.00
2018-01-19T10:12:31.415Z,2.20
2018-01-19T10:14:58.747Z,2.30
2018-01-19T10:17:26.020Z,2.53
2018-01-19T10:19:53.276Z,1.97
2018-01-19T10:22:20.604Z,2.07
2018-01-19T10:24:47.866Z,1.93
2018-01-19T10:27:15.143Z,2.10
2018-01-19T10:29:42.394Z,1.93
2018-01-19T10:32:09.733Z,1.90
2018-01-19T10:34:37.004Z,2.00
2018-01-19T10:37:04.279Z,1.80
2018-01-19T10:39:31.569Z,1.47
2018-01-19T10:41:58.856Z,1.63
2018-01-19T10:44:26.129Z,1.80
2018-01-19T10:46:53.381Z,1.50
2018-01-19T10:49:20.632Z,1.80
2018-01-19T10:51:47.920Z,1.77
2018-01-19T10:54:15.168Z,1.80
2018-01-19T10:56:42.460Z,1.90
2018-01-19T10:59:09.710Z,1.50
2018-01-19T11:01:36.947Z,1.47
2018-01-19T11:04:04.288Z,1.50
2018-01-19T11:06:31.542Z,1.80
2018-01-19T11:08:58.820Z,1.80
2018-01-19T11:11:26.065Z,1.40
2018-01-19T11:13:53.362Z,2.47
2018-01-19T11:16:20.635Z,1.37
2018-01-19T11:18:47.884Z,1.40
2018-01-19T11:21:15.159Z,1.40
2018-01-19T11:23:42.408Z,1.60
2018-01-19T11:26:09.703Z,1.80
2018-01-19T11:28:37.059Z,1.30
2018-01-19T11:31:04.337Z,1.40
2018-01-19T11:33:31.615Z,1.70
2018-01-19T11:35:58.853Z,1.70
2018-01-19T11:38:26.123Z,1.70
2018-01-19T11:40:53.371Z,1.27
2018-01-19T11:43:20.647Z,1.53
2018-01-19T11:45:47.900Z,1.30
2018-01-19T11:48:15.191Z,1.57
2018-01-19T11:50:42.436Z,1.50
2018-01-19T11:53:09.684Z,1.10
2018-01-19T11:55:36.959Z,1.40
2018-01-19T11:58:04.212Z,1.33
2018-01-19T12:00:31.497Z,1.17
2018-01-19T12:02:58.812Z,1.00
2018-01-19T12:05:26.059Z,1.40
2018-01-19T12:07:53.335Z,1.50
2018-01-19T12:10:20.576Z,1.50
2018-01-19T12:12:48.035Z,1.50
2018-01-19T12:15:15.304Z,1.20
2018-01-19T12:17:42.568Z,1.47
2018-01-19T12:20:09.830Z,1.50
2018-01-19T12:22:37.085Z,1.53
2018-01-19T12:25:04.360Z,1.77
2018-01-19T12:27:31.639Z,1.23
2018-01-19T12:29:59.289Z,1.50
2018-01-19T12:32:26.552Z,1.20
2018-01-19T12:34:53.847Z,1.20
2018-01-19T12:37:21.096Z,1.00
2018-01-19T12:39:48.444Z,1.07
2018-01-19T12:42:15.691Z,0.90
2018-01-19T12:44:42.972Z,1.20
2018-01-19T12:47:10.220Z,1.30
2018-01-19T12:49:37.504Z,1.00
2018-01-19T12:52:04.753Z,1.20
2018-01-19T12:54:32.004Z,1.40
2018-01-19T12:56:59.296Z,0.87
2018-01-19T12:59:26.549Z,1.50
2018-01-19T13:01:53.796Z,1.50
2018-01-19T13:04:21.084Z,1.60
2018-01-19T13:06:48.339Z,1.60
2018-01-19T13:09:15.660Z,2.07
2018-01-19T13:11:42.919Z,1.10
2018-01-19T13:14:10.178Z,1.70
2018-01-19T13:16:37.448Z,1.03
2018-01-19T13:19:04.697Z,1.37
2018-01-19T13:21:31.964Z,1.20
2018-01-19T13:23:59.216Z,1.50
2018-01-19T13:26:26.480Z,1.50
2018-01-19T13:28:53.728Z,1.17
2018-01-19T13:31:20.979Z,1.40
2018-01-19T13:33:48.244Z,0.97
2018-01-19T13:36:15.492Z,1.57
2018-01-19T13:38:42.770Z,1.40
2018-01-19T13:41:10.062Z,1.53
2018-01-19T13:43:37.292Z,1.40
2018-01-19T13:46:04.540Z,1.43
2018-01-19T13:48:31.808Z,1.13
2018-01-19T13:50:59.060Z,1.40
2018-01-19T13:53:26.326Z,1.30
2018-01-19T13:55:53.579Z,1.43
2018-01-19T13:58:20.849Z,1.40
2018-01-19T14:00:48.095Z,1.53
2018-01-19T14:03:15.369Z,1.33
2018-01-19T14:05:42.671Z,1.47
2018-01-19T14:08:09.931Z,1.73
2018-01-19T14:10:37.197Z,1.83
2018-01-19T14:13:04.460Z,1.37
2018-01-19T14:15:31.707Z,1.83
2018-01-19T14:17:58.976Z,2.00
2018-01-19T14:20:27.159Z,1.33
2018-01-19T14:22:54.442Z,1.53
2018-01-19T14:25:21.763Z,1.10
2018-01-19T14:27:49.137Z,1.63
2018-01-19T14:30:16.400Z,1.30
2018-01-19T14:32:43.645Z,1.40
2018-01-19T14:35:10.916Z,1.50
2018-01-19T14:37:38.160Z,1.57
2018-01-19T14:40:05.427Z,1.20
2018-01-19T14:42:32.696Z,1.00
2018-01-19T14:44:59.961Z,1.50
2018-01-19T14:47:27.216Z,1.37
2018-01-19T14:49:54.480Z,1.23
2018-01-19T14:52:21.736Z,1.40
2018-01-19T14:54:49.012Z,1.33
2018-01-19T14:57:16.255Z,1.10
2018-01-19T14:59:43.537Z,1.20
2018-01-19T15:02:10.780Z,1.30
2018-01-19T15:04:38.112Z,1.33
2018-01-19T15:07:05.316Z,1.27
2018-01-19T15:09:32.584Z,1.80
2018-01-19T15:11:59.832Z,1.57
2018-01-19T15:14:27.099Z,1.83
2018-01-19T15:16:54.348Z,1.40
2018-01-19T15:19:21.604Z,1.50
2018-01-19T15:21:48.876Z,1.20
2018-01-19T15:24:16.155Z,1.23
2018-01-19T15:26:43.408Z,1.37
2018-01-19T15:29:10.658Z,1.27
2018-01-19T15:31:38.016Z,1.30
2018-01-19T15:34:05.260Z,1.53
2018-01-19T15:36:32.620Z,1.40
2018-01-19T15:38:59.876Z,1.53
2018-01-19T15:41:27.145Z,1.20
2018-01-19T15:43:54.496Z,1.30
2018-01-19T15:46:21.760Z,1.40
2018-01-19T15:48:48.999Z,1.27
2018-01-19T15:51:16.268Z,1.70
2018-01-19T15:53:43.601Z,1.20
2018-01-19T15:56:10.864Z,2.37
2018-01-19T15:58:38.119Z,1.50
2018-01-19T16:01:05.388Z,1.57
2018-01-19T16:06:06.299Z,1.47
2018-01-19T16:08:33.552Z,1.20
2018-01-19T16:11:00.803Z,1.40
2018-01-19T16:13:28.088Z,1.40
2018-01-19T16:15:55.439Z,1.63
2018-01-19T16:18:23.136Z,1.30
2018-01-19T16:20:50.581Z,1.30
2018-01-19T16:23:18.346Z,1.90
2018-01-19T16:25:45.869Z,1.10
2018-01-19T16:28:13.159Z,1.50
2018-01-19T16:30:40.412Z,1.70
2018-01-19T16:33:07.660Z,1.10
2018-01-19T16:35:34.948Z,1.93
2018-01-19T16:38:02.199Z,2.20
2018-01-19T16:40:29.475Z,1.83
2018-01-19T16:42:56.817Z,1.70
2018-01-19T16:45:24.084Z,1.63
2018-01-19T16:47:51.343Z,1.83
2018-01-19T16:52:37.005Z,2.10
2018-01-19T16:55:04.265Z,2.20
2018-01-19T16:57:31.539Z,2.10
2018-01-19T16:59:58.791Z,1.90
2018-01-19T17:02:26.066Z,2.30
2018-01-19T17:04:53.493Z,1.90
2018-01-19T17:07:20.769Z,2.27
2018-01-19T17:09:48.028Z,2.17
2018-01-19T17:12:15.396Z,1.70
2018-01-19T17:14:42.648Z,1.80
2018-01-19T17:17:09.916Z,1.40
2018-01-19T17:19:37.193Z,1.73
2018-01-19T17:22:04.443Z,1.80
2018-01-19T17:24:31.730Z,1.90
2018-01-19T17:26:58.990Z,1.77
2018-01-19T17:29:26.269Z,2.20
2018-01-19T17:31:53.520Z,1.57
2018-01-19T17:34:20.794Z,2.43
2018-01-19T17:36:48.049Z,2.30
2018-01-19T17:39:15.409Z,2.00
2018-01-19T17:41:42.664Z,1.47
2018-01-19T17:44:09.945Z,2.30
2018-01-19T17:46:37.193Z,1.97
2018-01-19T17:49:04.447Z,2.50
2018-01-19T17:51:31.765Z,2.23
2018-01-19T17:53:59.035Z,2.07
2018-01-19T17:56:26.315Z,2.27
2018-01-19T17:58:53.624Z,1.50
2018-01-19T18:01:20.902Z,1.97
2018-01-19T18:03:48.155Z,1.60
2018-01-19T18:06:15.439Z,2.03
2018-01-19T18:08:42.694Z,2.20
2018-01-19T18:11:09.992Z,2.50
2018-01-19T18:13:37.261Z,1.80
2018-01-19T18:16:04.537Z,1.50
2018-01-19T18:18:31.800Z,2.10
2018-01-19T18:20:59.064Z,2.40
2018-01-19T18:23:26.316Z,2.17
2018-01-19T18:25:53.619Z,1.73
2018-01-19T18:28:20.977Z,1.80
2018-01-19T18:30:48.257Z,2.67
2018-01-19T18:33:15.580Z,1.87
2018-01-19T18:35:42.854Z,1.60
2018-01-19T18:38:10.109Z,1.83
2018-01-19T18:40:37.388Z,1.83
2018-01-19T18:43:04.699Z,1.90
2018-01-19T18:45:31.955Z,2.60
2018-01-19T18:47:59.227Z,2.10
2018-01-19T18:50:26.481Z,2.03
2018-01-19T18:52:53.763Z,2.00
2018-01-19T18:55:21.037Z,2.03
2018-01-19T18:57:48.289Z,1.50
2018-01-19T19:00:15.572Z,1.90
2018-01-19T19:02:42.848Z,2.30
2018-01-19T19:05:10.101Z,1.90
2018-01-19T19:07:37.384Z,1.93
2018-01-19T19:10:04.636Z,2.00
2018-01-19T19:12:31.924Z,2.20
2018-01-19T19:14:59.175Z,2.10
2018-01-19T19:17:26.455Z,3.17
2018-01-19T19:19:53.710Z,2.90
2018-01-19T19:22:20.984Z,2.20
2018-01-19T19:24:48.264Z,2.07
2018-01-19T19:27:15.516Z,2.63
2018-01-19T19:29:42.800Z,2.50
2018-01-19T19:32:10.048Z,2.20
2018-01-19T19:34:37.337Z,2.10
2018-01-19T19:37:04.609Z,2.13
2018-01-19T19:39:31.886Z,2.23
2018-01-19T19:41:59.142Z,2.20
2018-01-19T19:44:26.419Z,2.80
2018-01-19T19:46:53.696Z,2.20
2018-01-19T19:49:20.976Z,3.33
2018-01-19T19:51:48.248Z,2.33
2018-01-19T19:54:15.506Z,2.60
2018-01-19T19:56:42.804Z,2.20
2018-01-19T19:59:10.056Z,2.13
2018-01-19T20:01:37.316Z,2.13
2018-01-19T20:04:04.617Z,2.00
2018-01-19T20:06:31.866Z,2.00
2018-01-19T20:08:59.117Z,2.10
2018-01-19T20:11:26.502Z,2.40
2018-01-19T20:13:53.744Z,2.43
2018-01-19T20:16:21.000Z,2.27
2018-01-19T20:18:48.279Z,2.03
2018-01-19T20:21:15.536Z,2.50
2018-01-19T20:23:42.816Z,1.93
2018-01-19T20:26:10.086Z,2.20
2018-01-19T20:28:37.338Z,2.90
2018-01-19T20:31:04.611Z,2.13
2018-01-19T20:33:31.866Z,2.60
2018-01-19T20:35:59.147Z,2.00
2018-01-19T20:38:26.399Z,2.07
2018-01-19T20:40:53.680Z,2.13
2018-01-19T20:43:20.939Z,2.10
2018-01-19T20:45:48.217Z,2.50
2018-01-19T20:48:15.497Z,3.20
2018-01-19T20:50:42.748Z,1.93
2018-01-19T20:53:09.996Z,1.80
2018-01-19T20:55:37.283Z,2.67
2018-01-19T20:58:04.531Z,2.40
2018-01-19T21:00:31.856Z,2.00
2018-01-19T21:02:59.071Z,1.80
2018-01-19T21:05:26.341Z,2.23
2018-01-19T21:07:53.603Z,2.13
2018-01-19T21:10:20.892Z,2.40
2018-01-19T21:12:48.144Z,2.23
2018-01-19T21:15:15.395Z,2.00
2018-01-19T21:17:42.671Z,1.70
2018-01-19T21:20:09.920Z,2.40
2018-01-19T21:22:37.194Z,1.47
2018-01-19T21:25:04.465Z,2.33
2018-01-19T21:27:31.750Z,2.17
2018-01-19T21:29:59.003Z,1.87
2018-01-19T21:32:26.290Z,2.10
2018-01-19T21:34:53.535Z,2.40
2018-01-19T21:37:20.784Z,1.60
2018-01-19T21:39:48.074Z,2.20
2018-01-19T21:42:15.326Z,1.90
2018-01-19T21:44:42.583Z,2.23
2018-01-19T21:47:09.859Z,2.30
2018-01-19T21:49:37.130Z,2.17
2018-01-19T21:52:04.409Z,1.90
2018-01-19T21:54:31.660Z,2.83
2018-01-19T21:56:58.946Z,2.20
2018-01-19T21:59:26.278Z,2.30
2018-01-19T22:01:53.527Z,2.70
2018-01-19T22:04:20.808Z,2.67
2018-01-19T22:06:48.065Z,2.40
2018-01-19T22:09:15.348Z,2.40
2018-01-19T22:11:42.620Z,2.80
2018-01-19T22:14:09.875Z,2.70
2018-01-19T22:16:37.148Z,2.87
2018-01-19T22:19:04.405Z,2.63
2018-01-19T22:21:32.343Z,2.70
2018-01-19T22:23:59.588Z,3.67
2018-01-19T22:26:26.849Z,3.17
2018-01-19T22:28:54.132Z,3.03
2018-01-19T22:31:21.379Z,2.93
2018-01-19T22:33:48.649Z,3.03
2018-01-19T22:36:15.932Z,3.03
2018-01-19T22:38:43.184Z,2.70
2018-01-19T22:41:10.430Z,2.53
2018-01-19T22:43:37.705Z,3.10
2018-01-19T22:46:04.952Z,2.77
2018-01-19T22:48:32.232Z,3.00
2018-01-19T22:50:59.491Z,3.10
2018-01-19T22:53:26.832Z,3.27
2018-01-19T22:55:54.063Z,2.90
2018-01-19T22:58:21.345Z,3.17
2018-01-19T23:00:48.607Z,2.50
2018-01-19T23:03:15.894Z,3.30
2018-01-19T23:05:43.142Z,3.43
2018-01-19T23:08:10.393Z,3.90
2018-01-19T23:10:37.668Z,2.80
2018-01-19T23:13:04.920Z,2.90
2018-01-19T23:15:32.203Z,3.33
2018-01-19T23:17:59.451Z,3.40
2018-01-19T23:20:26.787Z,2.87
2018-01-19T23:22:54.053Z,6.77
2018-01-19T23:25:21.333Z,3.30
2018-01-19T23:27:48.643Z,3.20
2018-01-19T23:30:15.893Z,2.90
2018-01-19T23:32:43.145Z,2.63
2018-01-19T23:35:10.419Z,3.40
2018-01-19T23:37:37.673Z,3.20
2018-01-19T23:40:04.963Z,4.53
2018-01-19T23:42:32.211Z,3.30
2018-01-19T23:44:59.455Z,3.10
2018-01-19T23:47:26.739Z,2.97
2018-01-19T23:49:53.992Z,3.27
2018-01-19T23:52:21.296Z,3.60
2018-01-19T23:54:48.557Z,4.40
2018-01-19T23:57:15.817Z,3.20
2018-01-19T23:59:43.084Z,3.23
